»·PEaware :: EAL455 KLAS-KBUR

EAL455 :: KLAS-KBUR

FLIGHT INFORMATION

Flight Status: Arrived
Operator:
Eastern Air Lines
More flights by this operator :: More flights under this callsign
Pilot: Dave P. (45)
Aircraft: BOEING 737-700
(B737)
More flights by this aircraft type
Origin: KLAS McCarran Intl
United States
Destination: KBUR Bob Hope-Burbank
United States
More flights between these airports :: More routes between these airports
Route: +BOACH8 WHIGG KREME JANNY5
File this flight plan on PilotEdge
Remarks: callsign is "EASTERN"
Altitude:
(Current/Filed)
22,000ft
Speed:
(Current/Filed)
419kts
Departed: 21-Nov-20 08:41 AM
Arrived: 21-Nov-20 09:30 AM
Distance/Time
Traveled:
194nm/0:48
Distance/Time
To Go:
Arrived

Flight Plot

Page will automatically refresh every two minutes.

Flight plan parsing failed; only flown route is shown


Map Options




Map Legend


Flown Route
Filed Route
Departure Airport
Arrival Airport
Navaid (VOR, NDB)
Fix

Horizontal Profiles

Position Reports

Time Latitude Longitude Heading Altitude Ground
Speed
21-Nov-20 08:25 36.080754 -115.134867 241 2189ft 0kts
21-Nov-20 08:27 36.080754 -115.134867 241 2189ft 0kts
21-Nov-20 08:28 36.080754 -115.134867 241 2189ft 0kts
21-Nov-20 08:29 36.080754 -115.134867 241 2189ft 0kts
21-Nov-20 08:30 36.080754 -115.134867 241 2189ft 0kts
21-Nov-20 08:31 36.080754 -115.134867 241 2189ft 0kts
21-Nov-20 08:32 36.080754 -115.134867 241 2189ft 0kts
21-Nov-20 08:33 36.080961 -115.134401 231 2189ft 2kts
21-Nov-20 08:34 36.081135 -115.134356 146 2189ft 0kts
21-Nov-20 08:35 36.081135 -115.134356 146 2189ft 0kts
21-Nov-20 08:36 36.079689 -115.133746 180 2189ft 11kts
21-Nov-20 08:37 36.078275 -115.132735 89 2189ft 12kts
21-Nov-20 08:38 36.078283 -115.125609 90 2189ft 20kts
21-Nov-20 08:39 36.077181 -115.121239 178 2189ft 8kts
21-Nov-20 08:40 36.076426 -115.124404 270 2189ft 34kts
21-Nov-20 08:41 36.076150 -115.168329 269 3460ft 156kts
21-Nov-20 08:42 36.076009 -115.232961 265 5095ft 232kts
21-Nov-20 08:42 36.033064 -115.278252 186 6860ft 282kts
21-Nov-20 08:44 35.943823 -115.305108 187 7486ft 289kts
21-Nov-20 08:44 35.876409 -115.312867 186 10673ft 298kts
21-Nov-20 08:46 35.768287 -115.304955 178 13182ft 371kts
21-Nov-20 08:46 35.681542 -115.305111 204 15853ft 375kts
21-Nov-20 08:47 35.606819 -115.390410 233 19102ft 375kts
21-Nov-20 08:48 35.535293 -115.486949 232 21938ft 386kts
21-Nov-20 08:49 35.460558 -115.580849 228 22300ft 382kts
21-Nov-20 08:50 35.391662 -115.661696 229 22298ft 381kts
21-Nov-20 08:51 35.319956 -115.746295 229 22297ft 381kts
21-Nov-20 08:52 35.243868 -115.836288 229 22301ft 380kts
21-Nov-20 08:53 35.167558 -115.926601 229 22299ft 381kts
21-Nov-20 08:54 35.091440 -116.016522 229 22301ft 381kts
21-Nov-20 08:55 35.015001 -116.105955 228 22301ft 381kts
21-Nov-20 08:56 34.938796 -116.195452 232 22308ft 379kts
21-Nov-20 08:57 34.885923 -116.303793 248 22315ft 371kts
21-Nov-20 08:58 34.841659 -116.417778 247 22319ft 372kts
21-Nov-20 08:59 34.797765 -116.531534 251 22326ft 370kts
21-Nov-20 09:00 34.778102 -116.651853 264 22316ft 351kts
21-Nov-20 09:01 34.766907 -116.769087 264 21881ft 347kts
21-Nov-20 09:02 34.755415 -116.885277 264 21071ft 344kts
21-Nov-20 09:03 34.743663 -117.000320 264 20285ft 342kts
21-Nov-20 09:04 34.732266 -117.114802 264 19500ft 340kts
21-Nov-20 09:05 34.720630 -117.228922 264 18710ft 339kts
21-Nov-20 09:06 34.708740 -117.341905 263 17704ft 336kts
21-Nov-20 09:07 34.696952 -117.453477 263 16836ft 334kts
21-Nov-20 09:08 34.685139 -117.564998 263 16062ft 332kts
21-Nov-20 09:09 34.673421 -117.676062 263 15293ft 330kts
21-Nov-20 09:10 34.661642 -117.786241 263 14530ft 329kts
21-Nov-20 09:11 34.649935 -117.896003 262 13642ft 328kts
21-Nov-20 09:12 34.637837 -118.005665 262 12295ft 325kts
21-Nov-20 09:13 34.622356 -118.110360 255 11029ft 300kts
21-Nov-20 09:14 34.600563 -118.203637 255 9871ft 275kts
21-Nov-20 09:15 34.580473 -118.292793 255 8756ft 274kts
21-Nov-20 09:16 34.560565 -118.381493 255 7950ft 269kts
21-Nov-20 09:17 34.521045 -118.456475 213 7622ft 280kts
21-Nov-20 09:18 34.457517 -118.504508 213 6773ft 258kts
21-Nov-20 09:19 34.401037 -118.548431 213 5986ft 233kts
21-Nov-20 09:20 34.344812 -118.586271 188 5864ft 225kts
21-Nov-20 09:21 34.290558 -118.593545 200 5414ft 179kts
21-Nov-20 09:22 34.243289 -118.617245 202 4865ft 186kts
21-Nov-20 09:23 34.194908 -118.629072 143 4678ft 183kts
21-Nov-20 09:24 34.196208 -118.573064 68 3787ft 176kts
21-Nov-20 09:25 34.200013 -118.514676 90 2829ft 176kts
21-Nov-20 09:26 34.199086 -118.455654 90 2122ft 165kts
21-Nov-20 09:27 34.198404 -118.405610 90 1332ft 138kts
21-Nov-20 09:28 34.197787 -118.360576 90 729ft 109kts
21-Nov-20 09:29 34.197171 -118.350383 262 729ft 0kts
21-Nov-20 09:30 34.197178 -118.352577 271 729ft 15kts
21-Nov-20 09:31 34.196743 -118.354773 177 729ft 0kts
21-Nov-20 09:32 34.196743 -118.354773 177 729ft 0kts
21-Nov-20 09:33 34.196743 -118.354773 177 729ft 0kts
21-Nov-20 09:34 34.196743 -118.354773 177 729ft 0kts

Navigation Log

Ident Type
Flight plan parsing failed, navigation log unavailable